Time;durP1;ratioP1;P1;durP2;ratioP2;P2;SDS_P1;SDS_P2;PMS_P1;PMS_P2;Temp;Humidity;BMP_temperature;BMP_pressure;BME280_temperature;BME280_humidity;BME280_pressure;Samples;Min_cycle;Max_cycle;Signal;HPM_P1;HPM_P2
2022/10/06 00:04:35;;;;;;;8.13;0.82;;;;;;;10.90;100.00;101432.06;13052643;22;20380;-91
2022/10/06 00:09:36;;;;;;;6.63;1.65;;;;;;;10.05;100.00;101328.84;13071507;22;20437;-93
2022/10/06 00:14:37;;;;;;;3.97;0.90;;;;;;;11.24;100.00;101543.25;13084998;22;20010;-92
2022/10/06 00:19:37;;;;;;;6.50;1.30;;;;;;;10.83;100.00;101486.41;13029651;22;20002;-92
2022/10/06 00:24:41;;;;;;;6.65;1.13;;;;;;;10.42;100.00;101435.94;13063496;22;20374;-92
2022/10/06 00:29:41;;;;;;;7.32;1.08;;;;;;;10.27;100.00;101442.72;13097874;22;20018;-92
2022/10/06 00:34:42;;;;;;;10.80;1.30;;;;;;;10.89;100.00;101590.13;13068200;22;20009;-93
2022/10/06 00:39:43;;;;;;;8.13;0.88;;;;;;;10.85;100.00;101570.50;13071458;22;20055;-92
2022/10/06 00:44:49;;;;;;;6.93;1.05;;;;;;;10.47;100.00;101579.19;13041609;22;20063;-94
2022/10/06 00:49:59;;;;;;;5.15;1.58;;;;;;;10.73;100.00;101597.22;13028297;22;20105;-92
2022/10/06 00:54:59;;;;;;;6.18;1.20;;;;;;;10.99;100.00;101675.78;13064370;22;20021;-92
2022/10/06 01:00:00;;;;;;;5.43;0.95;;;;;;;11.01;100.00;101684.66;13109947;22;20014;-92
2022/10/06 01:05:02;;;;;;;5.53;1.52;;;;;;;10.46;100.00;101589.38;13069835;22;20022;-92
2022/10/06 01:10:03;;;;;;;12.15;2.47;;;;;;;9.99;100.00;101533.34;13069251;22;20014;-92
2022/10/06 01:15:04;;;;;;;7.88;1.00;;;;;;;10.01;100.00;101586.22;13057350;22;20010;-91
2022/10/06 01:20:09;;;;;;;5.03;0.82;;;;;;;10.04;100.00;101602.25;13080691;22;20025;-86
2022/10/06 01:25:11;;;;;;;4.68;1.00;;;;;;;9.99;100.00;101618.63;13040036;22;20548;-86
2022/10/06 01:30:13;;;;;;;10.60;1.45;;;;;;;9.66;100.00;101553.91;13066136;22;20010;-86
2022/10/06 01:35:33;;;;;;;;;;;;;;;;;;;;;
2022/10/06 01:40:47;;;;;;;;;;;;;;;;;;;;;
2022/10/06 01:46:06;;;;;;;;;;;;;;;;;;;;;
2022/10/06 01:51:16;;;;;;;5.72;0.90;;;;;;;10.25;100.00;101698.06;12887753;22;20042;-86
2022/10/06 01:56:20;;;;;;;7.18;1.15;;;;;;;10.26;100.00;101720.91;12878730;22;20087;-87
2022/10/06 02:01:28;;;;;;;10.85;1.52;;;;;;;9.72;100.00;101637.38;12829403;22;20030;-86
2022/10/06 02:06:29;;;;;;;4.82;1.10;;;;;;;10.90;100.00;101864.56;12877951;22;20059;-86
2022/10/06 02:11:29;;;;;;;13.77;2.28;;;;;;;9.78;100.00;101694.22;12945380;22;20038;-92
2022/10/06 02:16:30;;;;;;;10.45;1.40;;;;;;;9.22;100.00;101617.19;13060353;22;20041;-92
2022/10/06 02:21:31;;;;;;;19.58;3.08;;;;;;;11.34;100.00;101934.13;13071817;22;20441;-93
2022/10/06 02:26:32;;;;;;;9.98;1.30;;;;;;;10.01;100.00;101743.03;13041152;22;20011;-92
2022/10/06 02:31:33;;;;;;;18.92;1.75;;;;;;;9.99;100.00;101750.66;13096757;22;20006;-94
2022/10/06 02:36:33;;;;;;;6.18;1.05;;;;;;;10.47;100.00;101846.25;13026180;22;20002;-92
2022/10/06 02:41:34;;;;;;;8.82;1.20;;;;;;;10.33;100.00;101852.97;13050942;22;20019;-91
2022/10/06 02:46:34;;;;;;;9.88;1.55;;;;;;;9.85;100.00;101766.47;13080364;22;20420;-92
2022/10/06 02:51:35;;;;;;;12.55;1.52;;;;;;;9.42;100.00;101756.31;13079570;22;20021;-92
2022/10/06 02:56:36;;;;;;;10.88;1.67;;;;;;;9.23;100.00;101775.47;13006471;22;20019;-92
2022/10/06 03:01:39;;;;;;;13.15;1.88;;;;;;;8.63;100.00;101701.75;13110001;22;20036;-92
2022/10/06 03:06:42;;;;;;;9.05;2.03;;;;;;;9.43;100.00;101827.53;13080672;22;20081;-91
2022/10/06 03:11:45;;;;;;;9.38;1.67;;;;;;;9.29;100.00;101836.97;13043984;22;20022;-92
2022/10/06 03:16:46;;;;;;;7.25;1.20;;;;;;;10.53;100.00;102068.34;13067709;22;20059;-92
2022/10/06 03:21:46;;;;;;;10.15;1.67;;;;;;;8.96;100.00;101865.47;12996095;22;20045;-92
2022/10/06 03:26:47;;;;;;;14.90;1.45;;;;;;;9.07;100.00;101862.03;13038029;22;20006;-92
2022/10/06 03:31:47;;;;;;;23.73;4.60;;;;;;;10.15;100.00;102018.84;13066731;22;20382;-92
2022/10/06 03:36:48;;;;;;;7.20;1.35;;;;;;;8.25;100.00;101775.81;13049040;22;19998;-92
2022/10/06 03:41:56;;;;;;;9.60;1.88;;;;;;;7.91;100.00;101736.69;13031179;22;20412;-92
2022/10/06 03:46:57;;;;;;;9.68;1.65;;;;;;;9.58;100.00;102016.06;13094638;22;20036;-92
2022/10/06 03:51:57;;;;;;;7.00;1.10;;;;;;;10.21;100.00;102115.16;13080145;22;20032;-92
2022/10/06 03:56:58;;;;;;;13.95;1.73;;;;;;;8.87;100.00;101910.72;13062748;22;25022;-92
2022/10/06 04:01:59;;;;;;;13.18;3.00;;;;;;;9.28;100.00;101998.25;13094453;22;20017;-91
2022/10/06 04:07:02;;;;;;;8.95;1.55;;;;;;;9.51;100.00;102024.38;13027333;22;20018;-92
2022/10/06 04:12:03;;;;;;;7.88;1.88;;;;;;;7.82;100.00;101777.19;13094002;22;20402;-92
2022/10/06 04:17:06;;;;;;;9.82;1.85;;;;;;;8.98;100.00;101986.94;13105578;22;20017;-91
2022/10/06 04:22:06;;;;;;;10.73;1.45;;;;;;;9.07;100.00;101998.53;13035629;22;20009;-92
2022/10/06 04:32:28;;;;;;;14.32;2.75;;;;;;;8.56;100.00;101937.03;13048194;22;20347;-92
2022/10/06 04:37:29;;;;;;;7.13;1.33;;;;;;;8.38;100.00;101940.38;13106177;22;20010;-91
2022/10/06 04:42:30;;;;;;;9.60;1.60;;;;;;;8.54;100.00;101977.56;13031667;22;20005;-92
2022/10/06 04:47:30;;;;;;;7.78;1.20;;;;;;;8.29;100.00;101983.69;12972367;22;20009;-92
2022/10/06 04:52:34;;;;;;;9.85;2.67;;;;;;;8.01;100.00;101950.13;12997908;22;20018;-92
2022/10/06 04:57:46;;;;;;;13.18;1.30;;;;;;;7.87;100.00;101911.75;12922308;22;20023;-87
2022/10/06 05:02:49;;;;;;;9.73;1.35;;;;;;;7.66;100.00;101947.56;12884937;22;20007;-87
2022/10/06 05:07:50;;;;;;;8.02;1.42;;;;;;;7.97;100.00;101981.78;12909553;22;20024;-86
2022/10/06 05:13:02;;;;;;;7.97;1.38;;;;;;;8.17;100.00;102037.50;12880413;22;20037;-86
2022/10/06 05:18:29;;;;;;;7.85;1.63;;;;;;;7.13;100.00;101862.53;12789238;22;20019;-86
2022/10/06 05:23:31;;;;;;;9.63;1.42;;;;;;;9.62;100.00;102309.63;12902769;22;20074;-86
2022/10/06 05:28:44;;;;;;;;;;;;;;;;;;;;;
2022/10/06 05:34:07;;;;;;;8.23;1.55;;;;;;;9.13;100.00;102261.41;12838244;22;20407;-86
2022/10/06 05:39:13;;;;;;;22.15;2.97;;;;;;;8.28;100.00;102123.81;12814337;22;20007;-86
2022/10/06 05:44:24;;;;;;;10.13;1.60;;;;;;;8.57;100.00;102191.22;12817981;22;20014;-87
2022/10/06 05:49:28;;;;;;;12.60;2.30;;;;;;;7.77;100.00;102058.50;12809778;22;20468;-87
2022/10/06 05:54:32;;;;;;;12.10;1.35;;;;;;;7.78;100.00;102036.38;12838043;22;20010;-87
2022/10/06 05:59:33;;;;;;;9.68;1.80;;;;;;;9.21;100.00;102305.19;12891761;22;20255;-87
2022/10/06 06:04:42;;;;;;;16.95;1.90;;;;;;;9.04;100.00;102273.69;12826217;22;20450;-87
2022/10/06 06:09:59;;;;;;;;;;;;;;;;;;;;;
2022/10/06 06:20:43;;;;;;;7.18;1.25;;;;;;;8.00;100.00;102096.53;12821074;22;20425;-87
2022/10/06 06:25:43;;;;;;;14.80;1.55;;;;;;;8.71;100.00;102202.25;12966439;22;20021;-88
2022/10/06 06:30:44;;;;;;;9.50;1.88;;;;;;;9.02;100.00;102232.69;12955072;22;20010;-88
2022/10/06 06:35:48;;;;;;;17.42;2.30;;;;;;;9.32;100.00;102242.41;12994562;22;20034;-91
2022/10/06 06:40:49;;;;;;;7.38;1.80;;;;;;;8.25;100.00;102089.41;13045483;22;19994;-87
2022/10/06 06:45:50;;;;;;;14.38;1.90;;;;;;;9.15;100.00;102209.00;12982226;22;20026;-86
2022/10/06 06:50:57;;;;;;;14.27;3.03;;;;;;;8.85;100.00;102149.84;13101935;22;20042;-88
2022/10/06 06:55:57;;;;;;;7.63;2.38;;;;;;;9.77;100.00;102311.28;12974350;22;20018;-87
2022/10/06 07:01:10;;;;;;;10.80;1.65;;;;;;;9.13;100.00;102197.38;13048970;22;20025;-89
2022/10/06 07:06:13;;;;;;;11.30;2.20;;;;;;;9.77;100.00;102355.31;13079158;22;20003;-86
2022/10/06 07:11:28;;;;;;;10.20;1.83;;;;;;;9.93;100.00;102360.38;13070142;22;20006;-88
2022/10/06 07:27:25;;;;;;;11.30;1.80;;;;;;;10.06;100.00;102370.50;13118483;22;20429;-87
2022/10/06 07:32:29;;;;;;;15.73;2.95;;;;;;;9.41;100.00;102241.97;12964915;22;20079;-87
2022/10/06 07:37:30;;;;;;;10.82;1.45;;;;;;;10.41;100.00;102384.84;13039517;22;20002;-87
2022/10/06 07:42:46;;;;;;;10.40;2.35;;;;;;;9.53;100.00;102238.56;13089672;22;20077;-87
2022/10/06 07:47:47;;;;;;;16.33;2.65;;;;;;;9.88;100.00;102269.38;13094516;22;20006;-88
2022/10/06 07:53:03;;;;;;;10.07;1.30;;;;;;;10.25;100.00;102298.06;12858349;22;20431;-89
2022/10/06 07:58:12;;;;;;;15.98;2.05;;;;;;;9.96;100.00;102221.53;12945974;22;20067;-89
2022/10/06 08:03:16;;;;;;;14.43;2.10;;;;;;;10.22;100.00;102309.50;12978652;22;20068;-88
2022/10/06 08:08:17;;;;;;;19.48;3.88;;;;;;;11.30;100.00;102454.00;12981382;22;20011;-88
2022/10/06 08:13:18;;;;;;;9.52;1.73;;;;;;;11.58;100.00;102499.66;12944307;22;20003;-89
2022/10/06 08:18:19;;;;;;;10.50;1.90;;;;;;;11.36;100.00;102417.25;13026357;22;20010;-88
2022/10/06 08:23:52;;;;;;;11.73;2.03;;;;;;;11.10;100.00;102338.34;12735918;22;20009;-89
2022/10/06 08:29:01;;;;;;;11.07;1.80;;;;;;;11.11;100.00;102356.56;12608165;23;20027;-87
2022/10/06 08:34:45;;;;;;;10.77;1.40;;;;;;;12.58;100.00;102579.00;12616544;22;20092;-88
2022/10/06 08:39:59;;;;;;;9.27;1.85;;;;;;;10.51;100.00;102230.19;12519249;23;20012;-88
2022/10/06 08:45:23;;;;;;;12.30;1.77;;;;;;;11.49;100.00;102380.47;12611904;22;20099;-88
2022/10/06 08:50:41;;;;;;;;;;;;;;;;;;;;;
2022/10/06 08:57:09;;;;;;;;;;;;;;;;;;;;;
2022/10/06 09:02:54;;;;;;;12.95;2.17;;;;;;;12.14;100.00;102404.16;12456187;23;20030;-87
2022/10/06 09:08:57;;;;;;;8.05;1.50;;;;;;;13.57;100.00;102601.16;12482627;23;20030;-88
2022/10/06 09:14:58;;;;;;;;;;;;;;;;;;;;;
2022/10/06 10:17:19;;;;;;;9.98;1.67;;;;;;;14.22;100.00;102471.13;12846784;22;20074;-91
2022/10/06 10:22:23;;;;;;;7.55;1.42;;;;;;;13.90;100.00;102426.31;12869973;22;20003;-89
2022/10/06 10:28:02;;;;;;;7.60;1.67;;;;;;;15.63;100.00;102646.84;13043083;22;20057;-93
2022/10/06 10:33:11;;;;;;;9.15;1.30;;;;;;;15.05;100.00;102459.97;13012608;22;20015;-90
2022/10/06 10:38:17;;;;;;;8.00;0.85;;;;;;;15.38;100.00;102556.38;13085684;22;20002;-92
2022/10/06 10:43:17;;;;;;;8.65;1.00;;;;;;;15.89;100.00;102593.50;12968927;22;20058;-93
2022/10/06 10:48:23;;;;;;;9.73;1.23;;;;;;;14.58;100.00;102352.81;12935140;22;20008;-91
2022/10/06 10:53:39;;;;;;;11.77;1.23;;;;;;;15.29;100.00;102497.63;12984082;22;20014;-91
2022/10/06 10:58:41;;;;;;;6.37;0.83;;;;;;;15.11;100.00;102462.59;12944577;22;20037;-92
2022/10/06 11:03:55;;;;;;;6.40;1.05;;;;;;;14.85;100.00;102394.69;12994218;22;20029;-92
2022/10/06 11:09:14;;;;;;;13.15;2.25;;;;;;;15.77;99.21;102526.06;13018796;22;20015;-92
2022/10/06 11:14:43;;;;;;;8.77;0.90;;;;;;;16.60;100.00;102667.31;12967119;22;20094;-92
2022/10/06 11:19:56;;;;;;;6.38;1.85;;;;;;;16.83;98.08;102667.22;12942506;22;20003;-94
2022/10/06 11:25:18;;;;;;;5.75;0.90;;;;;;;16.77;97.41;102662.63;12904732;22;20103;-93
2022/10/06 11:30:25;;;;;;;9.98;0.98;;;;;;;15.17;96.01;102404.44;13003157;22;20488;-95
2022/10/06 11:35:34;;;;;;;9.32;1.63;;;;;;;15.51;95.44;102397.88;12806352;22;20026;-94
2022/10/06 11:40:54;;;;;;;4.88;0.75;;;;;;;16.14;95.05;102487.59;12950293;22;20456;-91
2022/10/06 11:46:31;;;;;;;8.65;1.00;;;;;;;17.56;96.67;102672.75;12990643;22;20030;-92
2022/10/06 11:51:33;;;;;;;10.48;1.35;;;;;;;17.78;93.95;102655.19;12938967;22;20481;-94
2022/10/06 11:56:37;;;;;;;7.18;1.63;;;;;;;18.45;89.81;102651.22;12906368;22;20014;-91
2022/10/06 12:01:44;;;;;;;3.80;0.95;;;;;;;19.35;89.86;102651.38;12843716;22;20010;-91
2022/10/06 12:06:44;;;;;;;6.00;1.75;;;;;;;20.15;85.12;102637.16;12972683;22;20433;-90
2022/10/06 12:11:54;;;;;;;4.13;1.05;;;;;;;19.13;81.90;102515.56;13047065;22;20015;-91
2022/10/06 12:17:36;;;;;;;10.77;1.55;;;;;;;19.06;79.92;102470.31;12880175;22;20015;-90
2022/10/06 12:22:43;;;;;;;7.90;1.60;;;;;;;17.97;79.20;102363.16;12975333;22;20012;-91
2022/10/06 12:27:56;;;;;;;8.00;0.80;;;;;;;18.90;77.09;102477.78;12981309;22;19999;-90
2022/10/06 12:32:57;;;;;;;7.18;1.30;;;;;;;18.63;77.52;102466.72;12997321;22;20030;-92
2022/10/06 12:38:05;;;;;;;4.63;1.17;;;;;;;19.11;77.03;102587.56;12895430;22;20003;-81
2022/10/06 12:43:34;;;;;;;4.90;0.98;;;;;;;19.39;74.05;102618.16;12925750;22;20007;-90
2022/10/06 12:49:11;;;;;;;8.18;1.00;;;;;;;20.48;75.11;102615.41;12914082;22;20003;-90
2022/10/06 12:54:25;;;;;;;5.47;0.98;;;;;;;20.72;71.41;102568.13;13005770;22;20032;-91
2022/10/06 12:59:27;;;;;;;3.72;0.77;;;;;;;21.32;66.78;102635.50;12995109;22;20012;-90
2022/10/06 13:04:32;;;;;;;4.13;0.90;;;;;;;21.16;65.13;102478.69;12940583;22;20362;-88
2022/10/06 13:09:33;;;;;;;2.53;0.82;;;;;;;20.21;66.51;102515.81;13008625;22;20007;-91
2022/10/06 13:14:40;;;;;;;6.40;0.90;;;;;;;20.82;65.51;102444.97;12976130;22;20028;-89
2022/10/06 13:19:42;;;;;;;5.65;1.67;;;;;;;19.06;66.39;102339.13;12992773;22;20037;-91
2022/10/06 13:24:43;;;;;;;5.20;1.17;;;;;;;20.97;63.84;102474.84;12974883;22;20029;-87
2022/10/06 13:29:44;;;;;;;10.05;1.33;;;;;;;20.73;66.70;102481.09;13016703;22;20089;-85
2022/10/06 13:34:44;;;;;;;5.72;1.10;;;;;;;19.87;65.04;102412.97;13029065;22;20003;-90
2022/10/06 13:39:45;;;;;;;6.45;1.38;;;;;;;20.60;66.38;102599.19;13042554;22;20014;-88
2022/10/06 13:44:57;;;;;;;3.42;1.13;;;;;;;20.15;66.51;102463.81;13041485;22;20013;-89
2022/10/06 13:50:05;;;;;;;7.78;0.88;;;;;;;20.62;63.84;102496.22;12979435;22;20018;-87
2022/10/06 13:55:20;;;;;;;3.85;0.70;;;;;;;20.70;62.63;102475.22;13029696;22;20030;-87
2022/10/06 14:00:26;;;;;;;6.93;1.38;;;;;;;20.76;63.97;102564.47;13024856;22;20433;-91
2022/10/06 14:05:43;;;;;;;6.55;1.10;;;;;;;20.66;65.29;102575.69;13046661;22;20556;-89
2022/10/06 14:10:47;;;;;;;5.28;1.60;;;;;;;20.31;66.53;102501.84;13041828;22;20034;-88
2022/10/06 14:15:50;;;;;;;5.07;1.30;;;;;;;20.08;66.23;102412.94;13025384;22;20018;-89
2022/10/06 14:20:53;;;;;;;6.70;1.48;;;;;;;20.39;64.62;102463.25;13016774;22;20459;-89
2022/10/06 14:25:54;;;;;;;6.57;1.10;;;;;;;20.79;65.62;102492.28;13015582;22;20007;-89
2022/10/06 14:30:56;;;;;;;5.88;1.08;;;;;;;19.82;67.07;102424.13;13016025;22;20460;-89
2022/10/06 14:35:56;;;;;;;11.70;1.92;;;;;;;20.21;66.58;102490.66;13022634;22;20552;-89
2022/10/06 14:41:00;;;;;;;6.25;1.30;;;;;;;20.11;68.04;102586.59;13051286;22;20064;-88
2022/10/06 14:46:01;;;;;;;3.78;0.90;;;;;;;18.31;68.74;102497.47;13024066;22;20068;-87
2022/10/06 14:51:02;;;;;;;5.75;0.93;;;;;;;16.81;71.22;102435.75;13003093;22;20065;-92
2022/10/06 14:56:07;;;;;;;6.25;1.17;;;;;;;16.24;73.57;102463.81;13000354;22;20007;-88
2022/10/06 15:01:08;;;;;;;6.45;1.40;;;;;;;16.52;76.60;102541.53;13016889;22;20003;-88
2022/10/06 15:11:29;;;;;;;8.80;1.80;;;;;;;15.00;77.85;102424.63;13046094;22;20018;-88
2022/10/06 15:16:30;;;;;;;8.80;1.65;;;;;;;15.25;79.54;102517.78;12972672;22;20475;-88
2022/10/06 15:21:34;;;;;;;7.65;1.30;;;;;;;14.86;81.70;102471.25;13022047;22;20412;-91
2022/10/06 15:31:54;;;;;;;10.63;1.35;;;;;;;15.58;86.20;102707.78;13048940;22;20391;-91
2022/10/06 15:36:55;;;;;;;5.97;2.10;;;;;;;15.21;88.28;102635.91;13042463;22;20030;-89
2022/10/06 15:41:56;;;;;;;6.10;1.10;;;;;;;13.72;91.18;102410.63;13015364;22;20013;-87
2022/10/06 15:46:57;;;;;;;8.52;1.23;;;;;;;15.43;93.46;102723.00;13002940;22;20050;-91
2022/10/06 15:52:01;;;;;;;12.98;2.08;;;;;;;13.45;95.36;102399.13;13013540;22;20011;-89
2022/10/06 15:57:02;;;;;;;8.18;1.60;;;;;;;13.65;98.13;102462.47;12997803;22;20018;-89
2022/10/06 16:02:05;;;;;;;10.73;1.23;;;;;;;14.38;99.46;102612.78;13012685;22;20003;-89
2022/10/06 16:07:14;;;;;;;10.77;1.75;;;;;;;13.68;100.00;102520.97;13014065;22;19999;-89
2022/10/06 16:12:19;;;;;;;16.65;1.50;;;;;;;14.12;100.00;102637.06;13066453;22;20011;-88
2022/10/06 16:17:19;;;;;;;10.52;1.88;;;;;;;13.06;100.00;102452.00;13065040;22;20393;-88
2022/10/06 16:22:20;;;;;;;6.40;1.58;;;;;;;13.56;100.00;102589.25;13013572;22;20007;-88
2022/10/06 16:27:21;;;;;;;8.45;1.20;;;;;;;13.00;100.00;102494.41;13038681;22;20080;-88
2022/10/06 16:32:21;;;;;;;10.30;2.20;;;;;;;12.70;100.00;102478.56;13013934;22;20085;-88
2022/10/06 16:37:24;;;;;;;18.73;4.30;;;;;;;13.78;100.00;102703.09;13014067;22;20002;-89
2022/10/06 16:42:25;;;;;;;11.15;3.03;;;;;;;12.92;100.00;102570.19;13014677;22;20014;-88
2022/10/06 16:47:25;;;;;;;9.15;1.50;;;;;;;13.26;100.00;102677.69;13017471;22;20007;-87
2022/10/06 16:52:26;;;;;;;6.55;1.27;;;;;;;11.96;100.00;102498.81;13015944;22;20015;-90
2022/10/06 16:57:29;;;;;;;6.38;1.45;;;;;;;12.62;100.00;102644.63;13005042;22;20018;-89
2022/10/06 17:02:30;;;;;;;9.95;1.52;;;;;;;12.17;100.00;102619.88;13042978;22;20003;-89
2022/10/06 17:07:31;;;;;;;8.18;1.73;;;;;;;12.15;100.00;102619.28;13052947;22;20014;-88
2022/10/06 17:12:32;;;;;;;6.97;1.10;;;;;;;11.29;100.00;102508.28;13065261;22;20014;-89
2022/10/06 17:17:33;;;;;;;9.80;1.30;;;;;;;10.22;100.00;102381.06;12978690;22;20015;-89
2022/10/06 17:22:45;;;;;;;10.68;1.60;;;;;;;11.86;100.00;102700.72;12948089;22;20011;-89
2022/10/06 17:28:06;;;;;;;13.57;1.77;;;;;;;10.62;100.00;102510.41;12847684;22;20007;-90
2022/10/06 17:33:10;;;;;;;8.95;1.85;;;;;;;11.28;100.00;102654.63;12905169;22;20014;-89
2022/10/06 17:38:11;;;;;;;8.50;1.55;;;;;;;10.15;100.00;102446.28;12797669;22;20011;-89
2022/10/06 17:43:12;;;;;;;8.65;1.33;;;;;;;11.16;100.00;102659.13;12820704;22;20053;-89
2022/10/06 17:48:12;;;;;;;9.27;2.03;;;;;;;10.24;100.00;102535.81;12828569;22;20334;-89
2022/10/06 17:53:16;;;;;;;14.10;1.42;;;;;;;10.82;100.00;102623.31;12877293;22;20025;-89
2022/10/06 17:58:17;;;;;;;10.23;1.42;;;;;;;10.17;100.00;102551.50;12829464;22;20062;-89
2022/10/06 18:03:18;;;;;;;9.43;1.33;;;;;;;9.50;100.00;102455.13;12961938;22;20027;-89
2022/10/06 18:08:22;;;;;;;6.72;1.10;;;;;;;11.49;100.00;102799.69;12933263;22;20003;-89
2022/10/06 18:13:22;;;;;;;12.02;1.40;;;;;;;10.64;100.00;102647.91;12959316;22;20042;-88
2022/10/06 18:18:24;;;;;;;11.95;3.38;;;;;;;10.43;100.00;102629.69;12895828;22;20022;-89
2022/10/06 18:23:34;;;;;;;11.68;1.45;;;;;;;9.70;100.00;102548.66;12936120;22;20024;-88
2022/10/06 18:28:50;;;;;;;12.07;1.90;;;;;;;10.55;100.00;102716.13;12906794;22;20003;-88
2022/10/06 18:33:52;;;;;;;6.07;1.60;;;;;;;8.87;100.00;102492.97;12823351;22;20038;-89
2022/10/06 18:38:54;;;;;;;14.50;1.45;;;;;;;8.67;100.00;102438.75;12880427;22;20022;-88
2022/10/06 18:43:56;;;;;;;9.38;1.45;;;;;;;9.34;100.00;102554.44;12944366;22;20011;-88
2022/10/06 18:48:58;;;;;;;3.60;0.82;;;;;;;9.54;100.00;102612.28;12860271;22;20008;-88
2022/10/06 18:54:00;;;;;;;14.32;1.90;;;;;;;8.85;100.00;102548.09;12996545;22;20011;-91
2022/10/06 18:59:03;;;;;;;8.82;1.50;;;;;;;9.18;100.00;102634.53;12971154;22;20034;-89
2022/10/06 19:04:04;;;;;;;10.80;1.77;;;;;;;8.35;100.00;102494.28;12983207;22;20012;-89
2022/10/06 19:09:05;;;;;;;7.55;1.35;;;;;;;9.48;100.00;102688.16;12983704;22;20015;-89
2022/10/06 19:14:06;;;;;;;18.50;2.65;;;;;;;8.96;100.00;102565.06;12989060;22;20023;-86
2022/10/06 19:19:09;;;;;;;7.47;1.35;;;;;;;8.29;100.00;102477.56;13046357;22;20066;-86
2022/10/06 19:24:12;;;;;;;11.02;1.45;;;;;;;9.70;100.00;102732.09;13020022;22;20011;-89
2022/10/06 19:29:12;;;;;;;14.63;2.33;;;;;;;8.77;100.00;102566.63;13021120;22;20015;-89
2022/10/06 19:34:15;;;;;;;9.07;1.35;;;;;;;9.44;100.00;102708.88;13049554;22;20007;-89
2022/10/06 19:39:19;;;;;;;8.73;1.40;;;;;;;8.48;100.00;102572.09;13033047;22;20014;-89
2022/10/06 19:44:20;;;;;;;4.07;2.03;;;;;;;8.43;100.00;102554.53;13032168;22;20075;-88
2022/10/06 19:49:21;;;;;;;13.88;2.13;;;;;;;7.81;100.00;102469.16;13044089;22;20018;-89
2022/10/06 19:54:21;;;;;;;8.73;2.00;;;;;;;8.45;100.00;102546.94;13018596;22;19999;-89
2022/10/06 19:59:22;;;;;;;7.95;1.35;;;;;;;8.09;100.00;102452.72;13020080;22;20003;-89
2022/10/06 20:04:35;;;;;;;;;;;;;;;;;;;;;
2022/10/06 20:09:35;;;;;;;12.05;2.92;;;;;;;8.24;100.00;102503.91;12977174;22;20020;-90
2022/10/06 20:14:38;;;;;;;6.45;1.70;;;;;;;9.34;100.00;102678.13;12982708;22;20038;-91
2022/10/06 20:19:39;;;;;;;7.53;1.98;;;;;;;8.59;100.00;102554.25;12928829;22;20003;-89
2022/10/06 20:24:40;;;;;;;11.40;1.75;;;;;;;8.19;100.00;102506.41;12996447;22;20056;-89
2022/10/06 20:29:41;;;;;;;6.53;1.55;;;;;;;8.94;100.00;102650.41;12895413;22;20014;-90
2022/10/06 20:34:41;;;;;;;10.32;2.33;;;;;;;8.44;100.00;102580.94;12907206;22;20064;-89
2022/10/06 20:45:01;;;;;;;7.82;1.40;;;;;;;7.99;100.00;102500.75;12980563;22;20119;-86
2022/10/06 20:50:04;;;;;;;9.65;1.95;;;;;;;7.45;100.00;102401.53;12894547;22;20034;-87
2022/10/06 20:55:08;;;;;;;9.45;1.83;;;;;;;8.65;100.00;102594.63;12938424;22;20257;-86
2022/10/06 21:00:27;;;;;;;8.88;1.70;;;;;;;7.97;100.00;102533.00;12868442;22;20081;-87
2022/10/06 21:05:33;;;;;;;5.55;1.58;;;;;;;7.97;100.00;102538.47;12928133;22;20102;-88
2022/10/06 21:10:47;;;;;;;11.32;2.20;;;;;;;9.33;100.00;102750.69;12805678;22;20019;-88
2022/10/06 21:16:56;;;;;;;;;;;;;;;;;;;;;
2022/10/06 21:21:49;;;;;;;9.43;1.67;;;;;;;7.42;100.00;102444.94;12823929;22;20461;-88
2022/10/06 21:26:55;;;;;;;;;;;;;;;9.24;100.00;102695.00;12747334;22;20014;-88
2022/10/06 21:32:00;;;;;;;8.60;1.48;;;;;;;7.54;100.00;102458.97;12729608;22;20793;-88
2022/10/06 21:37:01;;;;;;;8.27;2.00;;;;;;;9.09;100.00;102699.75;12865935;22;20031;-87
2022/10/06 21:42:01;;;;;;;8.18;1.60;;;;;;;7.82;100.00;102494.69;12917920;22;20047;-87
2022/10/06 21:47:02;;;;;;;8.57;1.70;;;;;;;8.35;100.00;102576.59;12892991;22;20030;-87
2022/10/06 21:52:04;;;;;;;9.00;1.80;;;;;;;8.51;100.00;102642.22;12992509;22;20011;-87
2022/10/06 21:57:06;;;;;;;13.32;1.92;;;;;;;7.23;100.00;102435.47;13024268;22;20003;-87
2022/10/06 22:02:07;;;;;;;13.80;2.17;;;;;;;7.84;100.00;102531.81;13050804;22;20002;-88
2022/10/06 22:07:08;;;;;;;14.50;1.95;;;;;;;7.56;100.00;102501.56;13077393;22;20022;-85
2022/10/06 22:12:08;;;;;;;6.13;1.75;;;;;;;6.93;100.00;102391.72;13025817;22;20011;-87
2022/10/06 22:17:09;;;;;;;10.23;1.75;;;;;;;7.74;100.00;102525.81;13014994;22;20326;-86
2022/10/06 22:22:09;;;;;;;6.65;1.30;;;;;;;6.56;100.00;102327.09;13016154;22;20003;-87
2022/10/06 22:27:10;;;;;;;10.18;1.42;;;;;;;8.10;100.00;102563.28;12994422;22;20003;-87
2022/10/06 22:32:10;;;;;;;9.27;1.52;;;;;;;7.56;100.00;102443.19;12935325;22;20011;-86
2022/10/06 22:37:14;;;;;;;10.45;1.42;;;;;;;8.44;100.00;102624.88;13013378;22;20014;-88
2022/10/06 22:42:14;;;;;;;7.32;1.35;;;;;;;7.48;100.00;102434.06;12987014;22;20007;-88
2022/10/06 22:47:16;;;;;;;8.43;2.80;;;;;;;7.87;100.00;102501.28;12996243;22;20031;-89
2022/10/06 22:52:17;;;;;;;8.63;1.20;;;;;;;7.39;100.00;102440.69;12984150;22;20085;-88
2022/10/06 22:57:17;;;;;;;9.35;1.58;;;;;;;7.27;100.00;102387.44;12989243;22;20002;-88
2022/10/06 23:02:18;;;;;;;7.85;1.45;;;;;;;6.83;100.00;102282.53;13011741;22;20013;-87
2022/10/06 23:07:18;;;;;;;7.13;1.35;;;;;;;7.56;100.00;102402.91;13010641;22;20405;-87
2022/10/06 23:12:19;;;;;;;9.10;1.55;;;;;;;8.33;100.00;102541.13;12985773;22;20022;-87
2022/10/06 23:17:19;;;;;;;7.97;2.50;;;;;;;7.52;100.00;102376.09;13028417;22;20023;-87
2022/10/06 23:22:20;;;;;;;5.70;2.05;;;;;;;7.81;100.00;102400.63;13023044;22;20509;-87
2022/10/06 23:27:21;;;;;;;8.35;1.55;;;;;;;8.03;100.00;102444.44;13048994;22;20060;-87
2022/10/06 23:32:22;;;;;;;12.75;2.47;;;;;;;6.96;100.00;102275.50;13023284;22;20391;-87
2022/10/06 23:37:22;;;;;;;11.02;3.45;;;;;;;7.61;100.00;102405.09;13023663;22;20014;-87
2022/10/06 23:42:26;;;;;;;7.47;1.95;;;;;;;7.08;100.00;102302.16;13022223;22;20014;-87
2022/10/06 23:47:26;;;;;;;11.63;1.92;;;;;;;8.44;100.00;102506.84;13024876;22;20385;-87
2022/10/06 23:52:27;;;;;;;7.45;2.08;;;;;;;7.03;100.00;102315.59;13053508;22;20019;-86
2022/10/06 23:57:27;;;;;;;10.43;2.30;;;;;;;6.53;100.00;102216.13;13028435;22;20085;-87
